sensor_id;sensor_type;location;lat;lon;timestamp;pressure;altitude;pressure_sealevel;temperature;humidity
58668;BME280;59852;43.086;25.634;2023-05-29T00:01:39;98647.22;;;14.96;100.00
58668;BME280;59852;43.086;25.634;2023-05-29T00:04:06;98642.50;;;14.89;100.00
58668;BME280;59852;43.086;25.634;2023-05-29T00:06:31;98653.31;;;15.06;100.00
58668;BME280;59852;43.086;25.634;2023-05-29T00:08:56;98649.84;;;15.05;100.00
58668;BME280;59852;43.086;25.634;2023-05-29T00:11:22;98651.75;;;15.03;100.00
58668;BME280;59852;43.086;25.634;2023-05-29T00:13:48;98655.78;;;15.07;100.00
58668;BME280;59852;43.086;25.634;2023-05-29T00:16:13;98650.25;;;14.91;100.00
58668;BME280;59852;43.086;25.634;2023-05-29T00:18:38;98655.13;;;14.96;100.00
58668;BME280;59852;43.086;25.634;2023-05-29T00:21:10;98651.75;;;14.93;100.00
58668;BME280;59852;43.086;25.634;2023-05-29T00:23:35;98657.59;;;14.87;100.00
58668;BME280;59852;43.086;25.634;2023-05-29T00:26:01;98653.69;;;14.72;100.00
58668;BME280;59852;43.086;25.634;2023-05-29T00:28:26;98659.66;;;14.93;100.00
58668;BME280;59852;43.086;25.634;2023-05-29T00:30:51;98670.19;;;15.03;100.00
58668;BME280;59852;43.086;25.634;2023-05-29T00:33:17;98658.44;;;15.07;100.00
58668;BME280;59852;43.086;25.634;2023-05-29T00:35:43;98657.75;;;15.05;100.00
58668;BME280;59852;43.086;25.634;2023-05-29T00:38:09;98666.59;;;15.04;100.00
58668;BME280;59852;43.086;25.634;2023-05-29T00:40:34;98662.03;;;14.77;100.00
58668;BME280;59852;43.086;25.634;2023-05-29T00:42:59;98674.38;;;14.96;100.00
58668;BME280;59852;43.086;25.634;2023-05-29T00:45:24;98662.72;;;14.99;100.00
58668;BME280;59852;43.086;25.634;2023-05-29T00:47:51;98670.78;;;14.97;100.00
58668;BME280;59852;43.086;25.634;2023-05-29T00:50:17;98666.88;;;15.01;100.00
58668;BME280;59852;43.086;25.634;2023-05-29T00:52:43;98673.13;;;14.90;100.00
58668;BME280;59852;43.086;25.634;2023-05-29T00:55:09;98666.34;;;14.98;100.00
58668;BME280;59852;43.086;25.634;2023-05-29T00:57:35;98672.84;;;15.03;100.00
58668;BME280;59852;43.086;25.634;2023-05-29T01:00:01;98672.44;;;14.88;100.00
58668;BME280;59852;43.086;25.634;2023-05-29T01:02:30;98669.63;;;14.51;100.00
58668;BME280;59852;43.086;25.634;2023-05-29T01:04:55;98664.66;;;14.77;100.00
58668;BME280;59852;43.086;25.634;2023-05-29T01:07:21;98665.66;;;14.86;100.00
58668;BME280;59852;43.086;25.634;2023-05-29T01:09:47;98662.44;;;14.92;100.00
58668;BME280;59852;43.086;25.634;2023-05-29T01:12:37;98667.16;;;14.69;100.00
58668;BME280;59852;43.086;25.634;2023-05-29T01:15:14;98659.13;;;14.80;100.00
58668;BME280;59852;43.086;25.634;2023-05-29T01:25:11;98651.06;;;14.91;100.00
58668;BME280;59852;43.086;25.634;2023-05-29T01:27:37;98649.13;;;14.93;100.00
58668;BME280;59852;43.086;25.634;2023-05-29T01:30:05;98647.06;;;14.87;100.00
58668;BME280;59852;43.086;25.634;2023-05-29T01:32:32;98648.31;;;14.83;100.00
58668;BME280;59852;43.086;25.634;2023-05-29T01:34:58;98648.31;;;14.93;100.00
58668;BME280;59852;43.086;25.634;2023-05-29T01:37:24;98654.16;;;14.97;100.00
58668;BME280;59852;43.086;25.634;2023-05-29T01:39:49;98655.94;;;14.67;100.00
58668;BME280;59852;43.086;25.634;2023-05-29T01:42:14;98645.25;;;14.69;100.00
58668;BME280;59852;43.086;25.634;2023-05-29T01:44:40;98649.41;;;14.81;100.00
58668;BME280;59852;43.086;25.634;2023-05-29T01:47:06;98652.06;;;14.90;100.00
58668;BME280;59852;43.086;25.634;2023-05-29T01:49:32;98641.22;;;14.64;100.00
58668;BME280;59852;43.086;25.634;2023-05-29T01:51:58;98640.00;;;14.78;100.00
58668;BME280;59852;43.086;25.634;2023-05-29T01:54:23;98641.81;;;14.87;100.00
58668;BME280;59852;43.086;25.634;2023-05-29T01:56:48;98641.22;;;14.93;100.00
58668;BME280;59852;43.086;25.634;2023-05-29T01:59:14;98630.00;;;14.72;100.00
58668;BME280;59852;43.086;25.634;2023-05-29T02:01:40;98627.22;;;14.54;100.00
58668;BME280;59852;43.086;25.634;2023-05-29T02:04:06;98629.59;;;14.57;100.00
58668;BME280;59852;43.086;25.634;2023-05-29T02:06:31;98637.22;;;14.80;100.00
58668;BME280;59852;43.086;25.634;2023-05-29T02:08:58;98643.47;;;14.79;100.00
58668;BME280;59852;43.086;25.634;2023-05-29T02:11:23;98637.75;;;14.83;100.00
58668;BME280;59852;43.086;25.634;2023-05-29T02:13:48;98640.69;;;14.90;100.00
58668;BME280;59852;43.086;25.634;2023-05-29T02:16:14;98644.44;;;14.78;100.00
58668;BME280;59852;43.086;25.634;2023-05-29T02:18:40;98654.00;;;14.88;100.00
58668;BME280;59852;43.086;25.634;2023-05-29T02:21:06;98650.94;;;14.74;100.00
58668;BME280;59852;43.086;25.634;2023-05-29T02:23:32;98660.94;;;14.89;100.00
58668;BME280;59852;43.086;25.634;2023-05-29T02:25:57;98654.41;;;14.93;100.00
58668;BME280;59852;43.086;25.634;2023-05-29T02:28:22;98661.06;;;14.98;100.00
58668;BME280;59852;43.086;25.634;2023-05-29T02:30:48;98655.22;;;14.75;100.00
58668;BME280;59852;43.086;25.634;2023-05-29T02:33:13;98656.63;;;14.88;100.00
58668;BME280;59852;43.086;25.634;2023-05-29T02:35:38;98658.84;;;14.93;100.00
58668;BME280;59852;43.086;25.634;2023-05-29T02:38:04;98658.84;;;15.03;100.00
58668;BME280;59852;43.086;25.634;2023-05-29T02:40:29;98663.00;;;14.96;100.00
58668;BME280;59852;43.086;25.634;2023-05-29T02:42:54;98664.94;;;14.93;100.00
58668;BME280;59852;43.086;25.634;2023-05-29T02:45:20;98663.13;;;14.84;100.00
58668;BME280;59852;43.086;25.634;2023-05-29T02:47:45;98669.66;;;14.90;100.00
58668;BME280;59852;43.086;25.634;2023-05-29T02:50:10;98669.81;;;14.98;100.00
58668;BME280;59852;43.086;25.634;2023-05-29T02:52:36;98669.38;;;15.03;100.00
58668;BME280;59852;43.086;25.634;2023-05-29T02:55:05;98664.38;;;15.00;100.00
58668;BME280;59852;43.086;25.634;2023-05-29T02:57:30;98660.78;;;15.01;100.00
58668;BME280;59852;43.086;25.634;2023-05-29T02:59:56;98665.22;;;14.90;100.00
58668;BME280;59852;43.086;25.634;2023-05-29T03:02:21;98656.09;;;14.85;100.00
58668;BME280;59852;43.086;25.634;2023-05-29T03:04:46;98659.56;;;14.95;100.00
58668;BME280;59852;43.086;25.634;2023-05-29T03:07:15;98658.84;;;14.83;100.00
58668;BME280;59852;43.086;25.634;2023-05-29T03:09:40;98659.94;;;14.71;100.00
58668;BME280;59852;43.086;25.634;2023-05-29T03:12:06;98665.91;;;14.73;100.00
58668;BME280;59852;43.086;25.634;2023-05-29T03:14:31;98663.00;;;14.76;100.00
58668;BME280;59852;43.086;25.634;2023-05-29T03:17:04;98661.84;;;14.50;100.00
58668;BME280;59852;43.086;25.634;2023-05-29T03:19:30;98672.69;;;14.66;100.00
58668;BME280;59852;43.086;25.634;2023-05-29T03:21:55;98664.94;;;14.84;100.00
58668;BME280;59852;43.086;25.634;2023-05-29T03:24:21;98669.38;;;14.93;100.00
58668;BME280;59852;43.086;25.634;2023-05-29T03:26:48;98661.34;;;14.75;100.00
58668;BME280;59852;43.086;25.634;2023-05-29T03:29:13;98657.59;;;14.58;100.00
58668;BME280;59852;43.086;25.634;2023-05-29T03:31:39;98655.06;;;14.47;100.00
58668;BME280;59852;43.086;25.634;2023-05-29T03:34:05;98659.03;;;14.42;100.00
58668;BME280;59852;43.086;25.634;2023-05-29T03:36:30;98658.69;;;14.46;100.00
58668;BME280;59852;43.086;25.634;2023-05-29T03:38:57;98664.38;;;14.61;100.00
58668;BME280;59852;43.086;25.634;2023-05-29T03:41:22;98672.16;;;14.91;100.00
58668;BME280;59852;43.086;25.634;2023-05-29T03:43:47;98677.84;;;15.06;100.00
58668;BME280;59852;43.086;25.634;2023-05-29T03:46:13;98668.53;;;15.12;100.00
58668;BME280;59852;43.086;25.634;2023-05-29T03:48:38;98674.63;;;15.12;100.00
58668;BME280;59852;43.086;25.634;2023-05-29T03:51:03;98676.28;;;15.13;100.00
58668;BME280;59852;43.086;25.634;2023-05-29T03:53:29;98677.97;;;15.14;100.00
58668;BME280;59852;43.086;25.634;2023-05-29T03:55:55;98680.34;;;15.17;100.00
58668;BME280;59852;43.086;25.634;2023-05-29T03:58:21;98683.66;;;15.19;100.00
58668;BME280;59852;43.086;25.634;2023-05-29T04:00:46;98684.91;;;15.15;100.00
58668;BME280;59852;43.086;25.634;2023-05-29T04:03:11;98691.56;;;15.19;100.00
58668;BME280;59852;43.086;25.634;2023-05-29T04:05:37;98685.47;;;15.19;100.00
58668;BME280;59852;43.086;25.634;2023-05-29T04:08:02;98681.56;;;15.23;100.00
58668;BME280;59852;43.086;25.634;2023-05-29T04:10:29;98682.81;;;15.19;100.00
58668;BME280;59852;43.086;25.634;2023-05-29T04:12:54;98692.38;;;15.20;100.00
58668;BME280;59852;43.086;25.634;2023-05-29T04:15:20;98690.03;;;15.07;100.00
58668;BME280;59852;43.086;25.634;2023-05-29T04:17:46;98696.81;;;15.10;100.00
58668;BME280;59852;43.086;25.634;2023-05-29T04:20:12;98692.09;;;15.04;100.00
58668;BME280;59852;43.086;25.634;2023-05-29T04:22:37;98690.88;;;15.08;100.00
58668;BME280;59852;43.086;25.634;2023-05-29T04:25:03;98681.31;;;15.07;100.00
58668;BME280;59852;43.086;25.634;2023-05-29T04:27:32;98690.88;;;15.08;100.00
58668;BME280;59852;43.086;25.634;2023-05-29T04:30:02;98693.66;;;15.16;100.00
58668;BME280;59852;43.086;25.634;2023-05-29T04:32:27;98698.63;;;15.19;100.00
58668;BME280;59852;43.086;25.634;2023-05-29T04:34:53;98692.94;;;15.24;100.00
58668;BME280;59852;43.086;25.634;2023-05-29T04:37:18;98699.47;;;15.19;100.00
58668;BME280;59852;43.086;25.634;2023-05-29T04:39:43;98699.59;;;15.18;100.00
58668;BME280;59852;43.086;25.634;2023-05-29T04:42:09;98696.00;;;15.09;100.00
58668;BME280;59852;43.086;25.634;2023-05-29T04:44:34;98697.25;;;15.15;100.00
58668;BME280;59852;43.086;25.634;2023-05-29T04:47:00;98689.91;;;15.09;100.00
58668;BME280;59852;43.086;25.634;2023-05-29T04:49:28;98696.28;;;15.06;100.00
58668;BME280;59852;43.086;25.634;2023-05-29T04:51:54;98703.75;;;15.11;100.00
58668;BME280;59852;43.086;25.634;2023-05-29T04:54:19;98702.63;;;15.13;100.00
58668;BME280;59852;43.086;25.634;2023-05-29T04:56:45;98707.91;;;14.94;100.00
58668;BME280;59852;43.086;25.634;2023-05-29T04:59:11;98705.41;;;15.02;100.00
58668;BME280;59852;43.086;25.634;2023-05-29T05:01:36;98711.25;;;15.06;100.00
58668;BME280;59852;43.086;25.634;2023-05-29T05:04:01;98720.25;;;15.13;100.00
58668;BME280;59852;43.086;25.634;2023-05-29T05:06:27;98723.72;;;15.13;100.00
58668;BME280;59852;43.086;25.634;2023-05-29T05:08:54;98717.50;;;15.14;100.00
58668;BME280;59852;43.086;25.634;2023-05-29T05:11:22;98721.06;;;15.13;100.00
58668;BME280;59852;43.086;25.634;2023-05-29T05:13:48;98713.06;;;15.15;100.00
58668;BME280;59852;43.086;25.634;2023-05-29T05:16:13;98714.16;;;15.03;100.00
58668;BME280;59852;43.086;25.634;2023-05-29T05:18:38;98710.13;;;15.08;100.00
58668;BME280;59852;43.086;25.634;2023-05-29T05:21:04;98708.75;;;14.95;100.00
58668;BME280;59852;43.086;25.634;2023-05-29T05:23:29;98707.06;;;15.03;100.00
58668;BME280;59852;43.086;25.634;2023-05-29T05:25:55;98708.47;;;15.17;100.00
58668;BME280;59852;43.086;25.634;2023-05-29T05:28:20;98705.69;;;15.38;100.00
58668;BME280;59852;43.086;25.634;2023-05-29T05:30:46;98715.25;;;15.19;100.00
58668;BME280;59852;43.086;25.634;2023-05-29T05:33:11;98718.03;;;15.28;100.00
58668;BME280;59852;43.086;25.634;2023-05-29T05:35:36;98714.97;;;15.32;100.00
58668;BME280;59852;43.086;25.634;2023-05-29T05:38:02;98724.28;;;15.36;100.00
58668;BME280;59852;43.086;25.634;2023-05-29T05:40:27;98718.34;;;15.25;100.00
58668;BME280;59852;43.086;25.634;2023-05-29T05:42:53;98722.63;;;15.26;100.00
58668;BME280;59852;43.086;25.634;2023-05-29T05:45:18;98721.38;;;15.30;100.00
58668;BME280;59852;43.086;25.634;2023-05-29T05:47:43;98718.03;;;15.37;100.00
58668;BME280;59852;43.086;25.634;2023-05-29T05:50:09;98726.47;;;15.41;100.00
58668;BME280;59852;43.086;25.634;2023-05-29T05:52:34;98726.34;;;15.42;100.00
58668;BME280;59852;43.086;25.634;2023-05-29T05:55:00;98732.44;;;15.43;100.00
58668;BME280;59852;43.086;25.634;2023-05-29T05:57:25;98734.38;;;15.41;100.00
58668;BME280;59852;43.086;25.634;2023-05-29T05:59:51;98733.72;;;15.29;100.00
58668;BME280;59852;43.086;25.634;2023-05-29T06:02:17;98738.00;;;15.11;100.00
58668;BME280;59852;43.086;25.634;2023-05-29T06:04:42;98734.13;;;15.25;100.00
58668;BME280;59852;43.086;25.634;2023-05-29T06:07:08;98737.03;;;15.31;100.00
58668;BME280;59852;43.086;25.634;2023-05-29T06:09:33;98732.59;;;15.22;100.00
58668;BME280;59852;43.086;25.634;2023-05-29T06:11:59;98731.63;;;15.13;100.00
58668;BME280;59852;43.086;25.634;2023-05-29T06:14:25;98725.25;;;15.16;100.00
58668;BME280;59852;43.086;25.634;2023-05-29T06:16:50;98723.47;;;15.16;100.00
58668;BME280;59852;43.086;25.634;2023-05-29T06:19:16;98729.97;;;15.22;100.00
58668;BME280;59852;43.086;25.634;2023-05-29T06:21:41;98731.63;;;15.33;100.00
58668;BME280;59852;43.086;25.634;2023-05-29T06:24:06;98734.41;;;15.21;100.00
58668;BME280;59852;43.086;25.634;2023-05-29T06:26:32;98735.50;;;15.38;100.00
58668;BME280;59852;43.086;25.634;2023-05-29T06:28:57;98730.22;;;15.48;100.00
58668;BME280;59852;43.086;25.634;2023-05-29T06:31:22;98734.13;;;15.34;100.00
58668;BME280;59852;43.086;25.634;2023-05-29T06:33:48;98733.16;;;15.35;100.00
58668;BME280;59852;43.086;25.634;2023-05-29T06:36:13;98734.38;;;15.41;100.00
58668;BME280;59852;43.086;25.634;2023-05-29T06:38:38;98737.88;;;15.22;100.00
58668;BME280;59852;43.086;25.634;2023-05-29T06:41:04;98732.31;;;15.44;100.00
58668;BME280;59852;43.086;25.634;2023-05-29T06:43:29;98732.59;;;15.22;100.00
58668;BME280;59852;43.086;25.634;2023-05-29T06:45:54;98729.53;;;15.46;100.00
58668;BME280;59852;43.086;25.634;2023-05-29T06:48:20;98731.34;;;15.55;100.00
58668;BME280;59852;43.086;25.634;2023-05-29T06:50:46;98726.06;;;15.55;100.00
58668;BME280;59852;43.086;25.634;2023-05-29T06:53:12;98728.25;;;15.60;100.00
58668;BME280;59852;43.086;25.634;2023-05-29T06:55:37;98725.66;;;15.21;100.00
58668;BME280;59852;43.086;25.634;2023-05-29T06:58:02;98722.63;;;15.35;100.00
58668;BME280;59852;43.086;25.634;2023-05-29T07:00:28;98725.38;;;15.43;100.00
58668;BME280;59852;43.086;25.634;2023-05-29T07:02:53;98720.50;;;15.48;100.00
58668;BME280;59852;43.086;25.634;2023-05-29T07:05:19;98722.03;;;15.41;100.00
58668;BME280;59852;43.086;25.634;2023-05-29T07:07:44;98732.03;;;15.47;100.00
58668;BME280;59852;43.086;25.634;2023-05-29T07:10:10;98734.81;;;15.46;100.00
58668;BME280;59852;43.086;25.634;2023-05-29T07:12:35;98741.06;;;15.45;100.00
58668;BME280;59852;43.086;25.634;2023-05-29T07:15:00;98747.84;;;15.47;100.00
58668;BME280;59852;43.086;25.634;2023-05-29T07:17:26;98748.38;;;15.51;100.00
58668;BME280;59852;43.086;25.634;2023-05-29T07:19:51;98749.66;;;15.47;100.00
58668;BME280;59852;43.086;25.634;2023-05-29T07:22:17;98746.59;;;15.32;100.00
58668;BME280;59852;43.086;25.634;2023-05-29T07:24:42;98747.56;;;15.31;100.00
58668;BME280;59852;43.086;25.634;2023-05-29T07:27:07;98742.56;;;14.89;100.00
58668;BME280;59852;43.086;25.634;2023-05-29T07:29:33;98745.75;;;15.22;100.00
58668;BME280;59852;43.086;25.634;2023-05-29T07:31:58;98747.44;;;15.33;100.00
58668;BME280;59852;43.086;25.634;2023-05-29T07:34:23;98749.81;;;15.36;100.00
58668;BME280;59852;43.086;25.634;2023-05-29T07:36:56;98750.22;;;15.31;100.00
58668;BME280;59852;43.086;25.634;2023-05-29T07:39:22;98756.75;;;15.37;100.00
58668;BME280;59852;43.086;25.634;2023-05-29T07:41:47;98756.06;;;15.35;100.00
58668;BME280;59852;43.086;25.634;2023-05-29T07:44:12;98762.41;;;15.42;100.00
58668;BME280;59852;43.086;25.634;2023-05-29T07:46:38;98765.31;;;15.19;100.00
58668;BME280;59852;43.086;25.634;2023-05-29T07:49:03;98770.75;;;15.28;100.00
58668;BME280;59852;43.086;25.634;2023-05-29T07:51:28;98756.44;;;15.30;100.00
58668;BME280;59852;43.086;25.634;2023-05-29T07:53:54;98750.22;;;15.31;100.00
58668;BME280;59852;43.086;25.634;2023-05-29T07:56:19;98762.25;;;15.34;100.00
58668;BME280;59852;43.086;25.634;2023-05-29T07:58:44;98759.50;;;15.35;100.00
58668;BME280;59852;43.086;25.634;2023-05-29T08:01:11;98757.28;;;15.40;100.00
58668;BME280;59852;43.086;25.634;2023-05-29T08:03:37;98751.72;;;15.53;100.00
58668;BME280;59852;43.086;25.634;2023-05-29T08:06:02;98759.06;;;15.59;100.00
58668;BME280;59852;43.086;25.634;2023-05-29T08:08:28;98753.44;;;15.64;100.00
58668;BME280;59852;43.086;25.634;2023-05-29T08:10:53;98764.50;;;15.58;100.00
58668;BME280;59852;43.086;25.634;2023-05-29T08:13:18;98755.06;;;15.36;100.00
58668;BME280;59852;43.086;25.634;2023-05-29T08:15:44;98766.00;;;15.41;100.00
58668;BME280;59852;43.086;25.634;2023-05-29T08:18:09;98764.34;;;15.49;100.00
58668;BME280;59852;43.086;25.634;2023-05-29T08:20:35;98766.69;;;15.53;100.00
58668;BME280;59852;43.086;25.634;2023-05-29T08:23:00;98771.16;;;15.42;100.00
58668;BME280;59852;43.086;25.634;2023-05-29T08:25:25;98775.44;;;15.53;100.00
58668;BME280;59852;43.086;25.634;2023-05-29T08:27:51;98773.94;;;15.60;100.00
58668;BME280;59852;43.086;25.634;2023-05-29T08:30:16;98769.50;;;15.61;100.00
58668;BME280;59852;43.086;25.634;2023-05-29T08:32:41;98770.34;;;15.61;100.00
58668;BME280;59852;43.086;25.634;2023-05-29T08:35:07;98772.97;;;15.71;100.00
58668;BME280;59852;43.086;25.634;2023-05-29T08:37:33;98773.94;;;15.60;100.00
58668;BME280;59852;43.086;25.634;2023-05-29T08:39:58;98774.59;;;15.53;100.00
58668;BME280;59852;43.086;25.634;2023-05-29T08:42:29;98780.31;;;15.48;100.00
58668;BME280;59852;43.086;25.634;2023-05-29T08:44:55;98778.09;;;15.72;100.00
58668;BME280;59852;43.086;25.634;2023-05-29T08:47:22;98763.81;;;15.65;100.00
58668;BME280;59852;43.086;25.634;2023-05-29T08:49:54;98765.47;;;15.57;100.00
58668;BME280;59852;43.086;25.634;2023-05-29T08:52:22;98765.50;;;15.66;100.00
58668;BME280;59852;43.086;25.634;2023-05-29T08:54:47;98766.31;;;15.67;100.00
58668;BME280;59852;43.086;25.634;2023-05-29T08:57:13;98771.31;;;15.70;100.00
58668;BME280;59852;43.086;25.634;2023-05-29T08:59:42;98767.94;;;15.97;100.00
58668;BME280;59852;43.086;25.634;2023-05-29T09:02:09;98772.34;;;16.06;100.00
58668;BME280;59852;43.086;25.634;2023-05-29T09:04:34;98763.13;;;16.20;100.00
58668;BME280;59852;43.086;25.634;2023-05-29T09:07:00;98765.72;;;16.29;100.00
58668;BME280;59852;43.086;25.634;2023-05-29T09:09:25;98767.84;;;16.26;100.00
58668;BME280;59852;43.086;25.634;2023-05-29T09:11:52;98759.06;;;16.35;100.00
58668;BME280;59852;43.086;25.634;2023-05-29T09:16:59;98751.81;;;16.37;100.00
58668;BME280;59852;43.086;25.634;2023-05-29T09:19:25;98750.59;;;16.22;100.00
58668;BME280;59852;43.086;25.634;2023-05-29T09:21:50;98749.09;;;16.19;100.00
58668;BME280;59852;43.086;25.634;2023-05-29T09:24:16;98746.97;;;16.32;100.00
58668;BME280;59852;43.086;25.634;2023-05-29T09:26:50;98744.97;;;16.44;100.00
58668;BME280;59852;43.086;25.634;2023-05-29T09:29:16;98747.00;;;16.50;100.00
58668;BME280;59852;43.086;25.634;2023-05-29T09:31:47;98741.50;;;16.44;100.00
58668;BME280;59852;43.086;25.634;2023-05-29T09:34:12;98747.25;;;16.29;100.00
58668;BME280;59852;43.086;25.634;2023-05-29T09:36:38;98743.22;;;16.35;100.00
58668;BME280;59852;43.086;25.634;2023-05-29T09:39:03;98747.41;;;16.28;100.00
58668;BME280;59852;43.086;25.634;2023-05-29T09:41:29;98735.44;;;16.33;100.00
58668;BME280;59852;43.086;25.634;2023-05-29T09:43:56;98743.22;;;16.35;100.00
58668;BME280;59852;43.086;25.634;2023-05-29T09:46:24;98747.41;;;16.28;100.00
58668;BME280;59852;43.086;25.634;2023-05-29T09:48:50;98745.25;;;16.14;100.00
58668;BME280;59852;43.086;25.634;2023-05-29T09:51:21;98741.88;;;16.21;100.00
58668;BME280;59852;43.086;25.634;2023-05-29T09:53:48;98732.84;;;16.24;100.00
58668;BME280;59852;43.086;25.634;2023-05-29T09:56:15;98736.16;;;16.26;100.00
58668;BME280;59852;43.086;25.634;2023-05-29T09:58:42;98728.06;;;16.37;100.00
58668;BME280;59852;43.086;25.634;2023-05-29T10:01:14;98736.06;;;16.45;100.00
58668;BME280;59852;43.086;25.634;2023-05-29T10:03:43;98731.72;;;16.54;100.00
58668;BME280;59852;43.086;25.634;2023-05-29T10:06:10;98728.31;;;16.61;100.00
58668;BME280;59852;43.086;25.634;2023-05-29T10:08:37;98721.25;;;16.72;100.00
58668;BME280;59852;43.086;25.634;2023-05-29T10:11:03;98722.75;;;16.74;100.00
58668;BME280;59852;43.086;25.634;2023-05-29T10:13:35;98723.50;;;16.84;100.00
58668;BME280;59852;43.086;25.634;2023-05-29T10:16:03;98725.63;;;16.53;100.00
58668;BME280;59852;43.086;25.634;2023-05-29T10:20:59;98727.22;;;16.64;100.00
58668;BME280;59852;43.086;25.634;2023-05-29T10:23:25;98725.00;;;16.59;100.00
58668;BME280;59852;43.086;25.634;2023-05-29T10:25:53;98726.56;;;16.62;100.00
58668;BME280;59852;43.086;25.634;2023-05-29T10:28:22;98721.50;;;16.69;100.00
58668;BME280;59852;43.086;25.634;2023-05-29T10:30:57;98721.38;;;16.70;100.00
58668;BME280;59852;43.086;25.634;2023-05-29T10:33:33;98719.81;;;16.68;100.00
58668;BME280;59852;43.086;25.634;2023-05-29T10:36:05;98718.47;;;16.63;100.00
58668;BME280;59852;43.086;25.634;2023-05-29T10:38:32;98714.69;;;16.66;100.00
58668;BME280;59852;43.086;25.634;2023-05-29T10:41:25;98703.59;;;16.72;100.00
58668;BME280;59852;43.086;25.634;2023-05-29T10:43:43;98703.03;;;16.69;100.00
58668;BME280;59852;43.086;25.634;2023-05-29T10:46:09;98697.75;;;16.69;100.00
58668;BME280;59852;43.086;25.634;2023-05-29T10:48:41;98693.69;;;16.74;100.00
58668;BME280;59852;43.086;25.634;2023-05-29T10:51:07;98689.91;;;16.77;100.00
58668;BME280;59852;43.086;25.634;2023-05-29T10:53:33;98682.34;;;16.64;100.00
58668;BME280;59852;43.086;25.634;2023-05-29T10:55:58;98682.25;;;16.56;100.00
58668;BME280;59852;43.086;25.634;2023-05-29T10:58:24;98683.22;;;16.55;100.00
58668;BME280;59852;43.086;25.634;2023-05-29T11:00:51;98682.81;;;16.50;100.00
58668;BME280;59852;43.086;25.634;2023-05-29T11:03:26;98679.13;;;16.60;100.00
58668;BME280;59852;43.086;25.634;2023-05-29T11:11:01;98677.72;;;16.66;100.00
58668;BME280;59852;43.086;25.634;2023-05-29T11:13:34;98680.91;;;16.70;100.00
58668;BME280;59852;43.086;25.634;2023-05-29T11:16:09;98681.63;;;16.72;100.00
58668;BME280;59852;43.086;25.634;2023-05-29T11:18:42;98676.72;;;16.77;100.00
58668;BME280;59852;43.086;25.634;2023-05-29T11:21:21;98679.28;;;16.86;100.00
58668;BME280;59852;43.086;25.634;2023-05-29T11:23:48;98688.72;;;16.89;100.00
58668;BME280;59852;43.086;25.634;2023-05-29T11:26:15;98682.97;;;16.94;100.00
58668;BME280;59852;43.086;25.634;2023-05-29T11:28:42;98688.72;;;16.89;100.00
58668;BME280;59852;43.086;25.634;2023-05-29T11:31:08;98683.22;;;16.82;100.00
58668;BME280;59852;43.086;25.634;2023-05-29T11:33:33;98683.41;;;16.89;100.00
58668;BME280;59852;43.086;25.634;2023-05-29T11:36:00;98678.81;;;16.73;100.00
58668;BME280;59852;43.086;25.634;2023-05-29T11:38:27;98673.31;;;16.84;100.00
58668;BME280;59852;43.086;25.634;2023-05-29T11:40:55;98684.41;;;16.88;100.00
58668;BME280;59852;43.086;25.634;2023-05-29T11:43:21;98687.34;;;16.85;100.00
58668;BME280;59852;43.086;25.634;2023-05-29T11:45:47;98689.16;;;16.84;100.00
58668;BME280;59852;43.086;25.634;2023-05-29T11:48:12;98685.16;;;16.80;100.00
58668;BME280;59852;43.086;25.634;2023-05-29T11:50:38;98690.16;;;16.83;100.00
58668;BME280;59852;43.086;25.634;2023-05-29T11:53:05;98682.50;;;16.80;100.00
58668;BME280;59852;43.086;25.634;2023-05-29T11:55:30;98698.81;;;16.76;100.00
58668;BME280;59852;43.086;25.634;2023-05-29T11:57:59;98681.09;;;16.86;100.00
58668;BME280;59852;43.086;25.634;2023-05-29T12:00:25;98686.97;;;16.98;100.00
58668;BME280;59852;43.086;25.634;2023-05-29T12:02:50;98681.53;;;16.99;100.00
58668;BME280;59852;43.086;25.634;2023-05-29T12:05:16;98684.50;;;16.96;100.00
58668;BME280;59852;43.086;25.634;2023-05-29T12:07:47;98680.19;;;16.95;100.00
58668;BME280;59852;43.086;25.634;2023-05-29T12:10:13;98679.34;;;16.95;100.00
58668;BME280;59852;43.086;25.634;2023-05-29T12:12:39;98680.63;;;16.90;100.00
58668;BME280;59852;43.086;25.634;2023-05-29T12:15:05;98679.78;;;16.90;100.00
58668;BME280;59852;43.086;25.634;2023-05-29T12:17:32;98679.44;;;16.85;100.00
58668;BME280;59852;43.086;25.634;2023-05-29T12:19:57;98678.06;;;16.81;100.00
58668;BME280;59852;43.086;25.634;2023-05-29T12:22:32;98683.50;;;16.79;100.00
58668;BME280;59852;43.086;25.634;2023-05-29T12:25:03;98678.88;;;16.63;100.00
58668;BME280;59852;43.086;25.634;2023-05-29T12:27:28;98676.75;;;16.67;100.00
58668;BME280;59852;43.086;25.634;2023-05-29T12:30:03;98675.41;;;16.63;100.00
58668;BME280;59852;43.086;25.634;2023-05-29T12:32:38;98675.91;;;16.67;100.00
58668;BME280;59852;43.086;25.634;2023-05-29T12:35:10;98671.47;;;16.67;100.00
58668;BME280;59852;43.086;25.634;2023-05-29T12:37:41;98679.09;;;16.70;100.00
58668;BME280;59852;43.086;25.634;2023-05-29T12:40:10;98671.06;;;16.72;100.00
58668;BME280;59852;43.086;25.634;2023-05-29T12:42:37;98664.25;;;16.69;100.00
58668;BME280;59852;43.086;25.634;2023-05-29T12:45:02;98656.03;;;16.72;100.00
58668;BME280;59852;43.086;25.634;2023-05-29T12:47:29;98655.25;;;16.80;100.00
58668;BME280;59852;43.086;25.634;2023-05-29T12:49:54;98659.28;;;16.84;100.00
58668;BME280;59852;43.086;25.634;2023-05-29T12:52:21;98654.16;;;16.82;99.78
58668;BME280;59852;43.086;25.634;2023-05-29T12:54:48;98656.56;;;16.76;100.00